sensor_id;sensor_type;location;lat;lon;timestamp;P1;durP1;ratioP1;P2;durP2;ratioP2
15889;SDS011;8043;49.388;12.128;2023-03-16T00:02:46;9.87;;;3.10;;
15889;SDS011;8043;49.388;12.128;2023-03-16T00:07:48;3.83;;;2.27;;
15889;SDS011;8043;49.388;12.128;2023-03-16T00:12:51;7.73;;;4.00;;
15889;SDS011;8043;49.388;12.128;2023-03-16T00:17:53;5.00;;;2.73;;
15889;SDS011;8043;49.388;12.128;2023-03-16T00:22:56;4.67;;;3.03;;
15889;SDS011;8043;49.388;12.128;2023-03-16T00:27:59;4.20;;;2.43;;
15889;SDS011;8043;49.388;12.128;2023-03-16T00:33:03;5.07;;;2.23;;
15889;SDS011;8043;49.388;12.128;2023-03-16T00:38:05;3.63;;;2.13;;
15889;SDS011;8043;49.388;12.128;2023-03-16T00:43:08;3.87;;;2.60;;
15889;SDS011;8043;49.388;12.128;2023-03-16T00:48:10;6.33;;;3.10;;
15889;SDS011;8043;49.388;12.128;2023-03-16T00:53:12;4.67;;;2.33;;
15889;SDS011;8043;49.388;12.128;2023-03-16T00:58:15;3.67;;;2.50;;
15889;SDS011;8043;49.388;12.128;2023-03-16T01:03:17;1.53;;;1.43;;
15889;SDS011;8043;49.388;12.128;2023-03-16T01:08:19;8.47;;;2.60;;
15889;SDS011;8043;49.388;12.128;2023-03-16T01:13:22;10.37;;;3.37;;
15889;SDS011;8043;49.388;12.128;2023-03-16T01:18:24;4.63;;;3.07;;
15889;SDS011;8043;49.388;12.128;2023-03-16T01:23:27;5.13;;;4.03;;
15889;SDS011;8043;49.388;12.128;2023-03-16T01:28:31;6.10;;;2.50;;
15889;SDS011;8043;49.388;12.128;2023-03-16T01:33:34;6.60;;;2.90;;
15889;SDS011;8043;49.388;12.128;2023-03-16T01:38:37;7.70;;;3.83;;
15889;SDS011;8043;49.388;12.128;2023-03-16T01:43:40;5.97;;;3.20;;
15889;SDS011;8043;49.388;12.128;2023-03-16T01:48:48;4.67;;;2.80;;
15889;SDS011;8043;49.388;12.128;2023-03-16T01:54:02;8.40;;;3.93;;
15889;SDS011;8043;49.388;12.128;2023-03-16T01:59:06;5.30;;;2.77;;
15889;SDS011;8043;49.388;12.128;2023-03-16T02:04:13;8.83;;;3.23;;
15889;SDS011;8043;49.388;12.128;2023-03-16T02:09:15;6.47;;;4.07;;
15889;SDS011;8043;49.388;12.128;2023-03-16T02:14:19;4.67;;;3.37;;
15889;SDS011;8043;49.388;12.128;2023-03-16T02:19:35;6.07;;;3.10;;
15889;SDS011;8043;49.388;12.128;2023-03-16T02:24:39;5.83;;;3.13;;
15889;SDS011;8043;49.388;12.128;2023-03-16T02:29:49;5.10;;;2.87;;
15889;SDS011;8043;49.388;12.128;2023-03-16T02:34:49;4.57;;;2.47;;
15889;SDS011;8043;49.388;12.128;2023-03-16T02:39:52;4.67;;;3.33;;
15889;SDS011;8043;49.388;12.128;2023-03-16T02:44:55;5.50;;;3.17;;
15889;SDS011;8043;49.388;12.128;2023-03-16T02:49:58;4.20;;;3.10;;
15889;SDS011;8043;49.388;12.128;2023-03-16T02:55:03;4.63;;;2.33;;
15889;SDS011;8043;49.388;12.128;2023-03-16T03:00:07;4.10;;;2.10;;
15889;SDS011;8043;49.388;12.128;2023-03-16T03:05:14;5.10;;;3.17;;
15889;SDS011;8043;49.388;12.128;2023-03-16T03:10:16;5.17;;;3.10;;
15889;SDS011;8043;49.388;12.128;2023-03-16T03:15:19;6.40;;;4.15;;
15889;SDS011;8043;49.388;12.128;2023-03-16T03:20:21;5.03;;;3.03;;
15889;SDS011;8043;49.388;12.128;2023-03-16T03:25:23;5.57;;;3.23;;
15889;SDS011;8043;49.388;12.128;2023-03-16T03:30:26;5.17;;;3.17;;
15889;SDS011;8043;49.388;12.128;2023-03-16T03:35:28;4.83;;;2.57;;
15889;SDS011;8043;49.388;12.128;2023-03-16T03:40:31;5.50;;;2.92;;
15889;SDS011;8043;49.388;12.128;2023-03-16T03:45:33;3.20;;;2.10;;
15889;SDS011;8043;49.388;12.128;2023-03-16T03:50:35;3.77;;;2.43;;
15889;SDS011;8043;49.388;12.128;2023-03-16T03:55:39;2.53;;;2.33;;
15889;SDS011;8043;49.388;12.128;2023-03-16T04:00:41;1.67;;;1.52;;
15889;SDS011;8043;49.388;12.128;2023-03-16T04:05:44;2.93;;;2.20;;
15889;SDS011;8043;49.388;12.128;2023-03-16T04:10:46;7.13;;;2.73;;
15889;SDS011;8043;49.388;12.128;2023-03-16T04:15:54;6.23;;;2.80;;
15889;SDS011;8043;49.388;12.128;2023-03-16T04:20:59;6.20;;;2.83;;
15889;SDS011;8043;49.388;12.128;2023-03-16T04:26:03;6.23;;;2.33;;
15889;SDS011;8043;49.388;12.128;2023-03-16T04:31:06;5.47;;;3.47;;
15889;SDS011;8043;49.388;12.128;2023-03-16T04:36:09;5.97;;;2.43;;
15889;SDS011;8043;49.388;12.128;2023-03-16T04:41:11;3.90;;;2.17;;
15889;SDS011;8043;49.388;12.128;2023-03-16T04:46:13;4.20;;;2.27;;
15889;SDS011;8043;49.388;12.128;2023-03-16T04:51:16;4.60;;;3.07;;
15889;SDS011;8043;49.388;12.128;2023-03-16T04:56:18;2.40;;;2.13;;
15889;SDS011;8043;49.388;12.128;2023-03-16T05:01:21;3.63;;;2.60;;
15889;SDS011;8043;49.388;12.128;2023-03-16T05:06:23;1.97;;;1.83;;
15889;SDS011;8043;49.388;12.128;2023-03-16T05:11:26;3.53;;;1.90;;
15889;SDS011;8043;49.388;12.128;2023-03-16T05:16:28;9.33;;;2.57;;
15889;SDS011;8043;49.388;12.128;2023-03-16T05:21:31;2.20;;;1.77;;
15889;SDS011;8043;49.388;12.128;2023-03-16T05:26:35;3.33;;;2.17;;
15889;SDS011;8043;49.388;12.128;2023-03-16T05:31:39;4.97;;;2.73;;
15889;SDS011;8043;49.388;12.128;2023-03-16T05:36:44;2.07;;;1.60;;
15889;SDS011;8043;49.388;12.128;2023-03-16T05:41:47;4.80;;;2.53;;
15889;SDS011;8043;49.388;12.128;2023-03-16T05:46:49;8.25;;;2.55;;
15889;SDS011;8043;49.388;12.128;2023-03-16T05:51:51;8.07;;;2.97;;
15889;SDS011;8043;49.388;12.128;2023-03-16T05:56:54;4.00;;;2.50;;
15889;SDS011;8043;49.388;12.128;2023-03-16T06:01:56;4.03;;;2.50;;
15889;SDS011;8043;49.388;12.128;2023-03-16T06:06:58;4.77;;;2.63;;
15889;SDS011;8043;49.388;12.128;2023-03-16T06:12:01;4.23;;;3.10;;
15889;SDS011;8043;49.388;12.128;2023-03-16T06:17:03;4.83;;;2.87;;
15889;SDS011;8043;49.388;12.128;2023-03-16T06:22:05;7.97;;;3.43;;
15889;SDS011;8043;49.388;12.128;2023-03-16T06:27:08;5.77;;;2.87;;
15889;SDS011;8043;49.388;12.128;2023-03-16T06:32:11;2.70;;;2.27;;
15889;SDS011;8043;49.388;12.128;2023-03-16T06:37:14;3.33;;;2.27;;
15889;SDS011;8043;49.388;12.128;2023-03-16T06:42:16;6.03;;;3.40;;
15889;SDS011;8043;49.388;12.128;2023-03-16T06:47:18;6.97;;;4.20;;
15889;SDS011;8043;49.388;12.128;2023-03-16T06:52:21;5.40;;;3.40;;
15889;SDS011;8043;49.388;12.128;2023-03-16T06:57:23;5.57;;;3.00;;
15889;SDS011;8043;49.388;12.128;2023-03-16T07:02:26;4.23;;;2.53;;
15889;SDS011;8043;49.388;12.128;2023-03-16T07:07:28;1.97;;;1.83;;
15889;SDS011;8043;49.388;12.128;2023-03-16T07:12:30;3.23;;;2.40;;
15889;SDS011;8043;49.388;12.128;2023-03-16T07:17:33;4.63;;;2.30;;
15889;SDS011;8043;49.388;12.128;2023-03-16T07:22:35;5.63;;;2.93;;
15889;SDS011;8043;49.388;12.128;2023-03-16T07:27:38;7.27;;;3.20;;
15889;SDS011;8043;49.388;12.128;2023-03-16T07:32:42;4.27;;;2.53;;
15889;SDS011;8043;49.388;12.128;2023-03-16T07:37:44;3.53;;;2.10;;
15889;SDS011;8043;49.388;12.128;2023-03-16T07:42:46;5.97;;;3.27;;
15889;SDS011;8043;49.388;12.128;2023-03-16T07:47:49;3.33;;;2.50;;
15889;SDS011;8043;49.388;12.128;2023-03-16T07:52:53;4.57;;;2.93;;
15889;SDS011;8043;49.388;12.128;2023-03-16T07:57:55;6.40;;;3.17;;
15889;SDS011;8043;49.388;12.128;2023-03-16T08:02:58;2.60;;;2.10;;
15889;SDS011;8043;49.388;12.128;2023-03-16T08:08:01;7.10;;;3.03;;
15889;SDS011;8043;49.388;12.128;2023-03-16T08:13:03;3.93;;;2.30;;
15889;SDS011;8043;49.388;12.128;2023-03-16T08:18:06;6.00;;;3.30;;
15889;SDS011;8043;49.388;12.128;2023-03-16T08:23:08;6.07;;;3.47;;
15889;SDS011;8043;49.388;12.128;2023-03-16T08:28:12;4.03;;;2.47;;
15889;SDS011;8043;49.388;12.128;2023-03-16T08:33:15;6.67;;;3.03;;
15889;SDS011;8043;49.388;12.128;2023-03-16T08:38:17;6.97;;;4.00;;
15889;SDS011;8043;49.388;12.128;2023-03-16T08:43:20;6.03;;;3.07;;
15889;SDS011;8043;49.388;12.128;2023-03-16T08:48:23;6.70;;;3.07;;
15889;SDS011;8043;49.388;12.128;2023-03-16T08:53:26;7.07;;;3.47;;
15889;SDS011;8043;49.388;12.128;2023-03-16T08:58:28;5.27;;;2.83;;
15889;SDS011;8043;49.388;12.128;2023-03-16T09:03:32;7.03;;;3.47;;
15889;SDS011;8043;49.388;12.128;2023-03-16T09:08:38;7.43;;;3.67;;
15889;SDS011;8043;49.388;12.128;2023-03-16T09:13:41;6.50;;;3.43;;
15889;SDS011;8043;49.388;12.128;2023-03-16T09:18:44;6.57;;;3.57;;
15889;SDS011;8043;49.388;12.128;2023-03-16T09:23:47;6.60;;;3.20;;
15889;SDS011;8043;49.388;12.128;2023-03-16T09:28:50;6.77;;;3.33;;
15889;SDS011;8043;49.388;12.128;2023-03-16T09:33:53;6.90;;;3.37;;
15889;SDS011;8043;49.388;12.128;2023-03-16T09:38:56;6.10;;;2.80;;
15889;SDS011;8043;49.388;12.128;2023-03-16T09:49:12;4.67;;;2.77;;
15889;SDS011;8043;49.388;12.128;2023-03-16T09:54:28;3.93;;;2.00;;
15889;SDS011;8043;49.388;12.128;2023-03-16T09:59:31;5.70;;;2.50;;
15889;SDS011;8043;49.388;12.128;2023-03-16T10:04:36;6.30;;;3.03;;
15889;SDS011;8043;49.388;12.128;2023-03-16T10:14:51;4.20;;;2.57;;
15889;SDS011;8043;49.388;12.128;2023-03-16T10:20:04;3.90;;;2.30;;
15889;SDS011;8043;49.388;12.128;2023-03-16T10:30:25;6.60;;;2.67;;
15889;SDS011;8043;49.388;12.128;2023-03-16T10:35:45;6.03;;;2.70;;
15889;SDS011;8043;49.388;12.128;2023-03-16T10:40:50;7.07;;;2.83;;
15889;SDS011;8043;49.388;12.128;2023-03-16T10:45:57;5.13;;;2.93;;
15889;SDS011;8043;49.388;12.128;2023-03-16T10:51:02;5.30;;;2.80;;
15889;SDS011;8043;49.388;12.128;2023-03-16T10:56:19;3.27;;;2.20;;
15889;SDS011;8043;49.388;12.128;2023-03-16T11:01:26;5.00;;;2.37;;
15889;SDS011;8043;49.388;12.128;2023-03-16T11:06:30;5.37;;;2.27;;
15889;SDS011;8043;49.388;12.128;2023-03-16T11:11:34;4.15;;;2.20;;
15889;SDS011;8043;49.388;12.128;2023-03-16T11:16:38;4.93;;;2.30;;
15889;SDS011;8043;49.388;12.128;2023-03-16T11:27:03;2.17;;;1.90;;
15889;SDS011;8043;49.388;12.128;2023-03-16T11:32:12;2.67;;;1.83;;
15889;SDS011;8043;49.388;12.128;2023-03-16T11:37:27;6.17;;;2.50;;
15889;SDS011;8043;49.388;12.128;2023-03-16T11:53:17;5.40;;;2.00;;
15889;SDS011;8043;49.388;12.128;2023-03-16T11:58:37;1.77;;;1.30;;
15889;SDS011;8043;49.388;12.128;2023-03-16T12:09:18;3.33;;;1.60;;
15889;SDS011;8043;49.388;12.128;2023-03-16T12:19:29;1.40;;;1.10;;
15889;SDS011;8043;49.388;12.128;2023-03-16T12:24:44;3.83;;;1.63;;
15889;SDS011;8043;49.388;12.128;2023-03-16T12:45:57;1.43;;;1.23;;
15889;SDS011;8043;49.388;12.128;2023-03-16T12:51:02;1.30;;;1.03;;
15889;SDS011;8043;49.388;12.128;2023-03-16T12:56:06;2.83;;;1.33;;
15889;SDS011;8043;49.388;12.128;2023-03-16T13:01:10;1.93;;;1.30;;
15889;SDS011;8043;49.388;12.128;2023-03-16T13:06:18;1.40;;;1.13;;
15889;SDS011;8043;49.388;12.128;2023-03-16T13:11:24;2.30;;;1.07;;
15889;SDS011;8043;49.388;12.128;2023-03-16T13:16:27;4.87;;;1.73;;
15889;SDS011;8043;49.388;12.128;2023-03-16T13:21:35;2.83;;;1.40;;
15889;SDS011;8043;49.388;12.128;2023-03-16T13:26:41;1.93;;;1.10;;
15889;SDS011;8043;49.388;12.128;2023-03-16T13:31:47;2.13;;;1.17;;
15889;SDS011;8043;49.388;12.128;2023-03-16T13:36:52;2.60;;;2.40;;
15889;SDS011;8043;49.388;12.128;2023-03-16T13:41:59;1.40;;;1.30;;
15889;SDS011;8043;49.388;12.128;2023-03-16T13:47:04;1.53;;;1.00;;
15889;SDS011;8043;49.388;12.128;2023-03-16T13:52:17;1.40;;;1.10;;
15889;SDS011;8043;49.388;12.128;2023-03-16T13:57:21;1.43;;;1.13;;
15889;SDS011;8043;49.388;12.128;2023-03-16T14:02:25;1.17;;;1.00;;
15889;SDS011;8043;49.388;12.128;2023-03-16T14:07:27;4.00;;;1.50;;
15889;SDS011;8043;49.388;12.128;2023-03-16T14:12:29;2.13;;;1.33;;
15889;SDS011;8043;49.388;12.128;2023-03-16T14:17:31;1.00;;;0.90;;
15889;SDS011;8043;49.388;12.128;2023-03-16T14:22:34;2.90;;;1.53;;
15889;SDS011;8043;49.388;12.128;2023-03-16T14:32:57;1.73;;;1.30;;
15889;SDS011;8043;49.388;12.128;2023-03-16T14:38:35;2.20;;;1.37;;
15889;SDS011;8043;49.388;12.128;2023-03-16T14:43:28;2.20;;;1.30;;
15889;SDS011;8043;49.388;12.128;2023-03-16T14:48:32;2.23;;;1.20;;
15889;SDS011;8043;49.388;12.128;2023-03-16T14:53:35;1.80;;;1.47;;
15889;SDS011;8043;49.388;12.128;2023-03-16T14:58:38;1.90;;;1.30;;
15889;SDS011;8043;49.388;12.128;2023-03-16T15:03:41;3.00;;;1.30;;
15889;SDS011;8043;49.388;12.128;2023-03-16T15:08:44;1.77;;;1.10;;
15889;SDS011;8043;49.388;12.128;2023-03-16T15:13:47;3.77;;;1.63;;
15889;SDS011;8043;49.388;12.128;2023-03-16T15:18:52;1.43;;;1.23;;
15889;SDS011;8043;49.388;12.128;2023-03-16T15:23:54;2.07;;;1.20;;
15889;SDS011;8043;49.388;12.128;2023-03-16T15:28:58;2.13;;;1.20;;
15889;SDS011;8043;49.388;12.128;2023-03-16T15:34:00;1.53;;;1.30;;
15889;SDS011;8043;49.388;12.128;2023-03-16T15:39:03;1.83;;;1.30;;
15889;SDS011;8043;49.388;12.128;2023-03-16T15:44:10;2.50;;;1.10;;
15889;SDS011;8043;49.388;12.128;2023-03-16T15:49:12;1.80;;;1.17;;
15889;SDS011;8043;49.388;12.128;2023-03-16T15:54:14;2.30;;;0.90;;
15889;SDS011;8043;49.388;12.128;2023-03-16T15:59:22;1.40;;;0.70;;
15889;SDS011;8043;49.388;12.128;2023-03-16T16:04:21;2.50;;;0.63;;
15889;SDS011;8043;49.388;12.128;2023-03-16T16:09:25;1.67;;;1.10;;
15889;SDS011;8043;49.388;12.128;2023-03-16T16:14:27;2.27;;;1.30;;
15889;SDS011;8043;49.388;12.128;2023-03-16T16:19:29;1.57;;;0.80;;
15889;SDS011;8043;49.388;12.128;2023-03-16T16:24:38;1.20;;;1.07;;
15889;SDS011;8043;49.388;12.128;2023-03-16T16:29:38;3.43;;;1.20;;
15889;SDS011;8043;49.388;12.128;2023-03-16T16:34:40;2.57;;;1.60;;
15889;SDS011;8043;49.388;12.128;2023-03-16T16:39:42;1.60;;;1.50;;
15889;SDS011;8043;49.388;12.128;2023-03-16T16:44:45;4.70;;;1.87;;
15889;SDS011;8043;49.388;12.128;2023-03-16T16:49:47;3.27;;;1.70;;
15889;SDS011;8043;49.388;12.128;2023-03-16T16:54:51;3.03;;;1.50;;
15889;SDS011;8043;49.388;12.128;2023-03-16T16:59:53;3.60;;;1.63;;
15889;SDS011;8043;49.388;12.128;2023-03-16T17:04:56;4.63;;;2.80;;
15889;SDS011;8043;49.388;12.128;2023-03-16T17:10:00;9.47;;;4.10;;
15889;SDS011;8043;49.388;12.128;2023-03-16T17:15:10;5.23;;;3.23;;
15889;SDS011;8043;49.388;12.128;2023-03-16T17:20:22;3.20;;;1.77;;
15889;SDS011;8043;49.388;12.128;2023-03-16T17:25:25;2.50;;;1.70;;
15889;SDS011;8043;49.388;12.128;2023-03-16T17:30:29;2.33;;;1.57;;
15889;SDS011;8043;49.388;12.128;2023-03-16T17:35:32;3.40;;;2.10;;
15889;SDS011;8043;49.388;12.128;2023-03-16T17:40:35;5.70;;;3.47;;
15889;SDS011;8043;49.388;12.128;2023-03-16T17:45:37;10.77;;;6.00;;
15889;SDS011;8043;49.388;12.128;2023-03-16T17:50:39;11.80;;;6.13;;
15889;SDS011;8043;49.388;12.128;2023-03-16T17:55:42;9.10;;;5.53;;
15889;SDS011;8043;49.388;12.128;2023-03-16T18:00:47;7.97;;;5.90;;
15889;SDS011;8043;49.388;12.128;2023-03-16T18:05:49;10.63;;;6.30;;
15889;SDS011;8043;49.388;12.128;2023-03-16T18:15:59;7.90;;;4.70;;
15889;SDS011;8043;49.388;12.128;2023-03-16T18:21:03;7.63;;;4.30;;
15889;SDS011;8043;49.388;12.128;2023-03-16T18:26:05;4.97;;;3.50;;
15889;SDS011;8043;49.388;12.128;2023-03-16T18:31:18;5.00;;;3.90;;
15889;SDS011;8043;49.388;12.128;2023-03-16T18:36:22;12.10;;;4.43;;
15889;SDS011;8043;49.388;12.128;2023-03-16T18:41:28;5.97;;;3.80;;
15889;SDS011;8043;49.388;12.128;2023-03-16T18:46:33;7.30;;;4.53;;
15889;SDS011;8043;49.388;12.128;2023-03-16T18:51:36;8.20;;;3.73;;
15889;SDS011;8043;49.388;12.128;2023-03-16T18:56:38;6.27;;;3.80;;
15889;SDS011;8043;49.388;12.128;2023-03-16T19:01:41;5.80;;;3.57;;
15889;SDS011;8043;49.388;12.128;2023-03-16T19:06:44;5.95;;;3.87;;
15889;SDS011;8043;49.388;12.128;2023-03-16T19:11:47;8.20;;;4.30;;
15889;SDS011;8043;49.388;12.128;2023-03-16T19:16:50;41.20;;;16.77;;
15889;SDS011;8043;49.388;12.128;2023-03-16T19:22:04;36.27;;;14.40;;
15889;SDS011;8043;49.388;12.128;2023-03-16T19:27:08;21.80;;;10.37;;
15889;SDS011;8043;49.388;12.128;2023-03-16T19:32:19;25.73;;;10.80;;
15889;SDS011;8043;49.388;12.128;2023-03-16T19:37:22;20.83;;;11.07;;
15889;SDS011;8043;49.388;12.128;2023-03-16T19:42:31;20.03;;;10.37;;
15889;SDS011;8043;49.388;12.128;2023-03-16T19:47:33;8.67;;;4.87;;
15889;SDS011;8043;49.388;12.128;2023-03-16T19:52:35;4.37;;;2.53;;
15889;SDS011;8043;49.388;12.128;2023-03-16T19:57:38;3.77;;;2.70;;
15889;SDS011;8043;49.388;12.128;2023-03-16T20:02:40;3.80;;;2.30;;
15889;SDS011;8043;49.388;12.128;2023-03-16T20:07:43;6.57;;;2.63;;
15889;SDS011;8043;49.388;12.128;2023-03-16T20:12:45;5.13;;;2.60;;
15889;SDS011;8043;49.388;12.128;2023-03-16T20:17:48;6.33;;;4.27;;
15889;SDS011;8043;49.388;12.128;2023-03-16T20:22:51;3.03;;;2.23;;
15889;SDS011;8043;49.388;12.128;2023-03-16T20:27:57;5.67;;;2.40;;
15889;SDS011;8043;49.388;12.128;2023-03-16T20:33:01;7.70;;;3.73;;
15889;SDS011;8043;49.388;12.128;2023-03-16T20:38:07;12.47;;;5.10;;
15889;SDS011;8043;49.388;12.128;2023-03-16T20:49:23;3.60;;;2.83;;
15889;SDS011;8043;49.388;12.128;2023-03-16T20:54:26;3.60;;;1.77;;
15889;SDS011;8043;49.388;12.128;2023-03-16T20:59:29;4.53;;;2.43;;
15889;SDS011;8043;49.388;12.128;2023-03-16T21:04:32;5.07;;;2.27;;
15889;SDS011;8043;49.388;12.128;2023-03-16T21:09:35;8.93;;;3.97;;
15889;SDS011;8043;49.388;12.128;2023-03-16T21:14:38;9.00;;;3.13;;
15889;SDS011;8043;49.388;12.128;2023-03-16T21:19:44;10.60;;;3.90;;
15889;SDS011;8043;49.388;12.128;2023-03-16T21:24:58;7.90;;;2.77;;
15889;SDS011;8043;49.388;12.128;2023-03-16T21:30:06;4.50;;;2.77;;
15889;SDS011;8043;49.388;12.128;2023-03-16T21:35:15;4.13;;;1.90;;
15889;SDS011;8043;49.388;12.128;2023-03-16T21:40:18;4.83;;;2.03;;
15889;SDS011;8043;49.388;12.128;2023-03-16T21:45:21;2.17;;;1.60;;
15889;SDS011;8043;49.388;12.128;2023-03-16T21:50:30;2.97;;;1.83;;
15889;SDS011;8043;49.388;12.128;2023-03-16T21:55:33;6.73;;;2.30;;
15889;SDS011;8043;49.388;12.128;2023-03-16T22:00:35;3.70;;;1.63;;
15889;SDS011;8043;49.388;12.128;2023-03-16T22:05:38;1.63;;;1.53;;
15889;SDS011;8043;49.388;12.128;2023-03-16T22:10:43;5.50;;;1.90;;
15889;SDS011;8043;49.388;12.128;2023-03-16T22:15:47;2.90;;;1.70;;
15889;SDS011;8043;49.388;12.128;2023-03-16T22:20:52;4.00;;;2.47;;
15889;SDS011;8043;49.388;12.128;2023-03-16T22:25:57;9.23;;;4.23;;
15889;SDS011;8043;49.388;12.128;2023-03-16T22:30:59;8.83;;;4.10;;
15889;SDS011;8043;49.388;12.128;2023-03-16T22:36:08;7.97;;;3.37;;
15889;SDS011;8043;49.388;12.128;2023-03-16T22:41:13;1.60;;;1.50;;
15889;SDS011;8043;49.388;12.128;2023-03-16T22:46:18;3.77;;;1.67;;
15889;SDS011;8043;49.388;12.128;2023-03-16T22:51:25;6.07;;;1.80;;
15889;SDS011;8043;49.388;12.128;2023-03-16T22:56:30;2.87;;;1.90;;
15889;SDS011;8043;49.388;12.128;2023-03-16T23:01:34;4.20;;;1.80;;
15889;SDS011;8043;49.388;12.128;2023-03-16T23:06:39;2.97;;;1.57;;
15889;SDS011;8043;49.388;12.128;2023-03-16T23:11:42;2.27;;;1.67;;
15889;SDS011;8043;49.388;12.128;2023-03-16T23:16:46;3.07;;;2.50;;
15889;SDS011;8043;49.388;12.128;2023-03-16T23:21:49;4.93;;;1.83;;
15889;SDS011;8043;49.388;12.128;2023-03-16T23:26:52;4.57;;;2.50;;
15889;SDS011;8043;49.388;12.128;2023-03-16T23:31:55;2.70;;;1.63;;
15889;SDS011;8043;49.388;12.128;2023-03-16T23:36:57;8.97;;;2.07;;
15889;SDS011;8043;49.388;12.128;2023-03-16T23:42:00;3.77;;;1.90;;
15889;SDS011;8043;49.388;12.128;2023-03-16T23:47:03;1.73;;;1.63;;
15889;SDS011;8043;49.388;12.128;2023-03-16T23:52:35;2.27;;;1.43;;
15889;SDS011;8043;49.388;12.128;2023-03-16T23:57:37;2.67;;;2.00;;
